createdAt,value
2017-07-10T00:01:00.506Z,0
2017-07-10T00:02:10.779Z,0
2017-07-10T00:03:20.742Z,0
2017-07-10T00:04:31.006Z,0
2017-07-10T00:05:40.328Z,0
2017-07-10T00:06:50.896Z,0
2017-07-10T00:08:00.531Z,0
2017-07-10T00:09:10.788Z,0
2017-07-10T00:10:20.794Z,0
2017-07-10T00:11:30.749Z,0
2017-07-10T00:12:41.262Z,0
2017-07-10T00:13:50.898Z,0
2017-07-10T00:15:01.182Z,0
2017-07-10T00:16:11.138Z,0
2017-07-10T00:17:21.399Z,0
2017-07-10T00:18:31.601Z,0
2017-07-10T00:19:41.887Z,0
2017-07-10T00:20:51.928Z,0
2017-07-10T00:22:01.873Z,0
2017-07-10T00:23:12.134Z,0
2017-07-10T00:24:22.655Z,0
2017-07-10T00:25:32.958Z,0
2017-07-10T00:26:43.218Z,0
2017-07-10T00:27:53.495Z,0
2017-07-10T00:29:03.439Z,0
2017-07-10T00:30:13.641Z,0
2017-07-10T00:31:23.922Z,0
2017-07-10T00:32:34.233Z,0
2017-07-10T00:33:44.493Z,0
2017-07-10T00:34:54.449Z,0
2017-07-10T00:36:05.027Z,0
2017-07-10T00:37:15.353Z,0
2017-07-10T00:38:25.256Z,0
2017-07-10T00:39:35.205Z,0
2017-07-10T00:40:44.854Z,0
2017-07-10T00:41:55.037Z,0
2017-07-10T00:43:05.324Z,0
2017-07-10T00:44:15.277Z,0
2017-07-10T00:45:25.571Z,0
2017-07-10T00:46:35.837Z,0
2017-07-10T00:47:46.040Z,0
2017-07-10T00:48:56.003Z,0
2017-07-10T00:50:06.278Z,0
2017-07-10T00:51:16.539Z,0
2017-07-10T00:52:26.186Z,0
2017-07-10T00:53:36.707Z,0
2017-07-10T00:54:46.668Z,0
2017-07-10T00:55:56.623Z,0
2017-07-10T00:57:06.269Z,0
2017-07-10T00:58:16.547Z,0
2017-07-10T00:59:26.756Z,0
2017-07-10T01:00:36.694Z,0
2017-07-10T01:01:46.651Z,0
2017-07-10T01:02:56.621Z,0
2017-07-10T01:04:06.899Z,0
2017-07-10T01:05:16.779Z,0
2017-07-10T01:06:27.051Z,0
2017-07-10T01:07:37.308Z,0
2017-07-10T01:08:47.566Z,0
2017-07-10T01:09:57.842Z,0
2017-07-10T01:11:08.419Z,0
2017-07-10T01:12:18.376Z,0
2017-07-10T01:13:28.647Z,0
2017-07-10T01:14:38.926Z,0
2017-07-10T01:15:48.886Z,0
2017-07-10T01:16:58.776Z,0
2017-07-10T01:18:09.051Z,0
2017-07-10T01:19:19.318Z,0
2017-07-10T01:20:29.594Z,0
2017-07-10T01:21:39.866Z,0
2017-07-10T01:22:50.381Z,0
2017-07-10T01:24:00.319Z,0
2017-07-10T01:25:10.271Z,0
2017-07-10T01:26:20.522Z,0
2017-07-10T01:27:30.470Z,0
2017-07-10T01:28:40.988Z,0
2017-07-10T01:29:50.940Z,0
2017-07-10T01:31:00.905Z,0
2017-07-10T01:32:11.160Z,0
2017-07-10T01:33:21.124Z,0
2017-07-10T01:34:31.646Z,0
2017-07-10T01:35:41.916Z,0
2017-07-10T01:36:51.558Z,0
2017-07-10T01:38:01.535Z,0
2017-07-10T01:39:11.490Z,0
2017-07-10T01:40:22.005Z,0
2017-07-10T01:41:32.314Z,0
2017-07-10T01:42:42.599Z,0
2017-07-10T01:43:52.861Z,0
2017-07-10T01:45:02.826Z,0
2017-07-10T01:46:13.357Z,0
2017-07-10T01:47:23.632Z,0
2017-07-10T01:48:33.890Z,0
2017-07-10T01:49:44.152Z,0
2017-07-10T01:50:54.080Z,0
2017-07-10T01:52:04.301Z,0
2017-07-10T01:53:14.564Z,0
2017-07-10T01:54:24.519Z,0
2017-07-10T01:55:34.784Z,0
2017-07-10T01:56:44.738Z,0
2017-07-10T01:57:54.310Z,0
2017-07-10T01:59:04.577Z,0
2017-07-10T02:00:14.583Z,0
2017-07-10T02:01:24.562Z,0
2017-07-10T02:02:34.510Z,0
2017-07-10T02:03:45.036Z,0
2017-07-10T02:04:54.995Z,0
2017-07-10T02:06:04.641Z,0
2017-07-10T02:07:14.912Z,0
2017-07-10T02:08:24.538Z,0
2017-07-10T02:09:34.736Z,0
2017-07-10T02:10:44.396Z,0
2017-07-10T02:11:54.669Z,0
2017-07-10T02:13:04.629Z,0
2017-07-10T02:14:14.581Z,0
2017-07-10T02:15:24.777Z,0
2017-07-10T02:16:35.047Z,0
2017-07-10T02:17:45.323Z,0
2017-07-10T02:18:55.273Z,0
2017-07-10T02:20:05.538Z,0
2017-07-10T02:21:16.101Z,0
2017-07-10T02:22:26.392Z,0
2017-07-10T02:23:36.651Z,0
2017-07-10T02:24:46.602Z,0
2017-07-10T02:25:56.563Z,0
2017-07-10T02:27:07.075Z,0
2017-07-10T02:28:16.705Z,0
2017-07-10T02:29:26.656Z,0
2017-07-10T02:30:36.614Z,0
2017-07-10T02:31:46.888Z,0
2017-07-10T02:32:57.095Z,0
2017-07-10T02:34:07.355Z,0
2017-07-10T02:35:16.661Z,0
2017-07-10T02:36:26.611Z,0
2017-07-10T02:37:36.863Z,0
2017-07-10T02:38:47.116Z,0
2017-07-10T02:39:56.125Z,0
2017-07-10T02:41:06.078Z,0
2017-07-10T02:42:15.701Z,5
2017-07-10T02:43:26.148Z,5
2017-07-10T02:44:36.428Z,5
2017-07-10T02:45:46.378Z,5
2017-07-10T02:46:56.327Z,5
2017-07-10T02:48:06.603Z,5
2017-07-10T02:49:16.853Z,5
2017-07-10T02:50:26.978Z,5
2017-07-10T02:51:36.615Z,10
2017-07-10T02:52:46.885Z,10
2017-07-10T02:53:56.841Z,10
2017-07-10T02:55:07.122Z,10
2017-07-10T02:56:17.316Z,10
2017-07-10T02:57:26.952Z,15
2017-07-10T02:58:36.903Z,15
2017-07-10T02:59:46.846Z,15
2017-07-10T03:00:56.801Z,15
2017-07-10T03:02:07.305Z,15
2017-07-10T03:03:17.260Z,15
2017-07-10T03:04:27.216Z,20
2017-07-10T03:05:37.180Z,20
2017-07-10T03:06:47.144Z,20
2017-07-10T03:07:57.402Z,20
2017-07-10T03:09:06.706Z,25
2017-07-10T03:10:16.657Z,25
2017-07-10T03:11:26.919Z,30
2017-07-10T03:12:37.178Z,30
2017-07-10T03:13:47.387Z,35
2017-07-10T03:14:57.659Z,35
2017-07-10T03:16:07.619Z,40
2017-07-10T03:17:17.575Z,40
2017-07-10T03:18:27.207Z,40
2017-07-10T03:19:37.421Z,45
2017-07-10T03:20:47.061Z,50
2017-07-10T03:21:57.330Z,50
2017-07-10T03:23:07.598Z,50
2017-07-10T03:24:17.542Z,50
2017-07-10T03:25:28.081Z,55
2017-07-10T03:26:38.340Z,55
2017-07-10T03:27:48.612Z,60
2017-07-10T03:28:58.887Z,60
2017-07-10T03:30:09.153Z,65
2017-07-10T03:31:19.671Z,65
2017-07-10T03:32:29.613Z,70
2017-07-10T03:33:39.559Z,75
2017-07-10T03:34:49.827Z,75
2017-07-10T03:35:59.144Z,80
2017-07-10T03:37:09.020Z,80
2017-07-10T03:38:18.973Z,85
2017-07-10T03:39:29.254Z,85
2017-07-10T03:40:38.949Z,85
2017-07-10T03:41:49.225Z,90
2017-07-10T03:42:59.741Z,90
2017-07-10T03:44:09.364Z,95
2017-07-10T03:45:18.989Z,95
2017-07-10T03:46:28.934Z,100
2017-07-10T03:47:38.252Z,100
2017-07-10T03:48:48.765Z,100
2017-07-10T03:49:58.726Z,105
2017-07-10T03:51:08.664Z,105
2017-07-10T03:52:18.938Z,110
2017-07-10T03:53:28.891Z,115
2017-07-10T03:54:38.848Z,115
2017-07-10T03:55:48.490Z,120
2017-07-10T03:56:58.771Z,120
2017-07-10T03:58:08.729Z,125
2017-07-10T03:59:18.694Z,125
2017-07-10T04:00:28.946Z,130
2017-07-10T04:01:38.899Z,130
2017-07-10T04:02:48.855Z,135
2017-07-10T04:03:59.120Z,140
2017-07-10T04:05:08.452Z,140
2017-07-10T04:06:18.967Z,145
2017-07-10T04:07:29.224Z,150
2017-07-10T04:08:39.155Z,155
2017-07-10T04:09:49.427Z,160
2017-07-10T04:10:58.748Z,165
2017-07-10T04:12:08.964Z,175
2017-07-10T04:13:18.911Z,175
2017-07-10T04:14:29.179Z,180
2017-07-10T04:15:39.455Z,185
2017-07-10T04:16:49.095Z,195
2017-07-10T04:17:59.680Z,200
2017-07-10T04:19:09.940Z,205
2017-07-10T04:20:20.215Z,210
2017-07-10T04:21:30.478Z,215
2017-07-10T04:22:40.741Z,225
2017-07-10T04:23:50.685Z,230
2017-07-10T04:25:00.879Z,235
2017-07-10T04:26:10.822Z,240
2017-07-10T04:27:21.088Z,245
2017-07-10T04:28:30.733Z,250
2017-07-10T04:29:41.257Z,255
2017-07-10T04:30:51.532Z,260
2017-07-10T04:32:01.828Z,260
2017-07-10T04:33:12.116Z,265
2017-07-10T04:34:22.388Z,270
2017-07-10T04:35:32.589Z,275
2017-07-10T04:36:42.541Z,285
2017-07-10T04:37:52.797Z,285
2017-07-10T04:39:02.751Z,285
2017-07-10T04:40:13.040Z,290
2017-07-10T04:41:23.251Z,290
2017-07-10T04:42:33.526Z,295
2017-07-10T04:43:43.799Z,295
2017-07-10T04:44:54.070Z,295
2017-07-10T04:46:04.346Z,295
2017-07-10T04:47:14.636Z,295
2017-07-10T04:48:24.265Z,300
2017-07-10T04:49:34.553Z,300
2017-07-10T04:50:44.825Z,300
2017-07-10T04:51:54.154Z,300
2017-07-10T04:53:04.661Z,305
2017-07-10T04:54:14.625Z,305
2017-07-10T04:55:24.909Z,305
2017-07-10T04:56:34.856Z,310
2017-07-10T04:57:44.480Z,310
2017-07-10T04:58:55.010Z,315
2017-07-10T05:00:04.971Z,315
2017-07-10T05:01:14.917Z,320
2017-07-10T05:02:24.565Z,320
2017-07-10T05:03:34.825Z,325
2017-07-10T05:04:45.025Z,330
2017-07-10T05:05:54.361Z,330
2017-07-10T05:07:04.327Z,335
2017-07-10T05:08:14.285Z,335
2017-07-10T05:09:23.913Z,340
2017-07-10T05:10:34.457Z,340
2017-07-10T05:11:44.092Z,345
2017-07-10T05:12:53.733Z,345
2017-07-10T05:14:03.688Z,350
2017-07-10T05:15:13.637Z,350
2017-07-10T05:16:23.899Z,355
2017-07-10T05:17:33.851Z,350
2017-07-10T05:18:43.823Z,350
2017-07-10T05:19:53.780Z,345
2017-07-10T05:21:03.735Z,345
2017-07-10T05:22:13.923Z,345
2017-07-10T05:23:24.193Z,345
2017-07-10T05:24:34.464Z,350
2017-07-10T05:25:44.108Z,345
2017-07-10T05:26:54.382Z,345
2017-07-10T05:28:04.274Z,350
2017-07-10T05:29:14.557Z,355
2017-07-10T05:30:24.519Z,360
2017-07-10T05:31:34.810Z,360
2017-07-10T05:32:45.121Z,365
2017-07-10T05:33:55.325Z,365
2017-07-10T05:35:04.966Z,370
2017-07-10T05:36:15.245Z,370
2017-07-10T05:37:25.219Z,375
2017-07-10T05:38:34.874Z,375
2017-07-10T05:39:45.072Z,380
2017-07-10T05:40:55.346Z,385
2017-07-10T05:42:05.281Z,395
2017-07-10T05:43:15.214Z,405
2017-07-10T05:44:25.472Z,415
2017-07-10T05:45:36.032Z,425
2017-07-10T05:46:46.290Z,435
2017-07-10T05:47:56.568Z,445
2017-07-10T05:49:06.858Z,455
2017-07-10T05:50:16.815Z,450
2017-07-10T05:51:27.074Z,455
2017-07-10T05:52:37.357Z,450
2017-07-10T05:53:47.630Z,450
2017-07-10T05:54:57.907Z,455
2017-07-10T05:56:08.190Z,455
2017-07-10T05:57:18.414Z,460
2017-07-10T05:58:28.696Z,455
2017-07-10T05:59:38.983Z,455
2017-07-10T06:00:48.951Z,455
2017-07-10T06:01:59.230Z,455
2017-07-10T06:03:09.428Z,455
2017-07-10T06:04:19.692Z,455
2017-07-10T06:05:29.016Z,460
2017-07-10T06:06:39.295Z,460
2017-07-10T06:07:49.298Z,460
2017-07-10T06:08:59.824Z,460
2017-07-10T06:10:09.479Z,465
2017-07-10T06:11:19.748Z,465
2017-07-10T06:12:29.737Z,465
2017-07-10T06:13:40.030Z,470
2017-07-10T06:14:50.580Z,475
2017-07-10T06:16:00.851Z,485
2017-07-10T06:17:11.125Z,495
2017-07-10T06:18:21.401Z,500
2017-07-10T06:19:31.382Z,510
2017-07-10T06:20:41.987Z,520
2017-07-10T06:21:52.263Z,530
2017-07-10T06:23:02.544Z,540
2017-07-10T06:24:12.833Z,560
2017-07-10T06:25:23.116Z,560
2017-07-10T06:26:33.722Z,565
2017-07-10T06:27:44.007Z,570
2017-07-10T06:28:54.316Z,585
2017-07-10T06:30:04.593Z,590
2017-07-10T06:31:14.878Z,605
2017-07-10T06:32:25.464Z,605
2017-07-10T06:33:35.110Z,615
2017-07-10T06:34:44.761Z,620
2017-07-10T06:35:55.049Z,630
2017-07-10T06:37:04.997Z,625
2017-07-10T06:38:15.528Z,615
2017-07-10T06:39:25.185Z,600
2017-07-10T06:40:35.480Z,590
2017-07-10T06:41:45.454Z,565
2017-07-10T06:42:55.735Z,545
2017-07-10T06:44:06.273Z,515
2017-07-10T06:45:16.537Z,495
2017-07-10T06:46:26.825Z,475
2017-07-10T06:47:37.095Z,455
2017-07-10T06:48:47.066Z,445
2017-07-10T06:49:57.594Z,435
2017-07-10T06:51:07.556Z,435
2017-07-10T06:52:17.849Z,430
2017-07-10T06:53:27.831Z,430
2017-07-10T06:54:37.800Z,430
2017-07-10T06:55:48.373Z,425
2017-07-10T06:56:58.664Z,425
2017-07-10T06:58:08.965Z,420
2017-07-10T06:59:19.230Z,415
2017-07-10T07:00:29.495Z,415
2017-07-10T07:01:40.050Z,420
2017-07-10T07:02:50.382Z,425
2017-07-10T07:04:00.660Z,430
2017-07-10T07:05:10.944Z,440
2017-07-10T07:06:21.224Z,445
2017-07-10T07:07:31.435Z,455
2017-07-10T07:08:41.426Z,460
2017-07-10T07:09:51.691Z,470
2017-07-10T07:11:01.971Z,475
2017-07-10T07:12:12.257Z,475
2017-07-10T07:13:22.782Z,480
2017-07-10T07:14:32.750Z,485
2017-07-10T07:15:43.022Z,495
2017-07-10T07:16:53.528Z,500
2017-07-10T07:18:03.800Z,510
2017-07-10T07:19:14.039Z,515
2017-07-10T07:20:24.329Z,520
2017-07-10T07:21:34.280Z,510
2017-07-10T07:22:44.215Z,510
2017-07-10T07:23:54.157Z,505
2017-07-10T07:25:04.691Z,505
2017-07-10T07:26:14.967Z,505
2017-07-10T07:27:25.259Z,505
2017-07-10T07:28:35.544Z,510
2017-07-10T07:29:45.818Z,510
2017-07-10T07:30:56.348Z,515
2017-07-10T07:32:06.635Z,520
2017-07-10T07:33:16.584Z,525
2017-07-10T07:34:26.544Z,525
2017-07-10T07:35:36.819Z,530
2017-07-10T07:36:47.031Z,525
2017-07-10T07:37:56.678Z,520
2017-07-10T07:39:06.961Z,500
2017-07-10T07:40:16.926Z,475
2017-07-10T07:41:27.199Z,450
2017-07-10T07:42:37.754Z,395
2017-07-10T07:43:48.040Z,360
2017-07-10T07:44:58.331Z,340
2017-07-10T07:46:08.620Z,325
2017-07-10T07:47:18.582Z,310
2017-07-10T07:48:29.120Z,305
2017-07-10T07:49:39.402Z,305
2017-07-10T07:50:49.677Z,305
2017-07-10T07:51:59.321Z,310
2017-07-10T07:53:09.591Z,315
2017-07-10T07:54:20.117Z,310
2017-07-10T07:55:30.402Z,305
2017-07-10T07:56:40.358Z,290
2017-07-10T07:57:49.993Z,280
2017-07-10T07:59:00.282Z,265
2017-07-10T08:00:10.848Z,240
2017-07-10T08:01:21.140Z,215
2017-07-10T08:02:31.405Z,195
2017-07-10T08:03:41.715Z,175
2017-07-10T08:04:51.979Z,160
2017-07-10T08:06:02.521Z,145
2017-07-10T08:07:12.818Z,130
2017-07-10T08:08:23.085Z,115
2017-07-10T08:09:33.382Z,105
2017-07-10T08:10:43.663Z,95
2017-07-10T08:11:54.203Z,85
2017-07-10T08:13:04.507Z,75
2017-07-10T08:14:14.785Z,70
2017-07-10T08:15:24.753Z,70
2017-07-10T08:16:35.052Z,70
2017-07-10T08:17:45.550Z,70
2017-07-10T08:18:55.832Z,70
2017-07-10T08:20:06.103Z,70
2017-07-10T08:21:16.391Z,70
2017-07-10T08:22:26.347Z,70
2017-07-10T08:23:36.893Z,70
2017-07-10T08:24:46.891Z,75
2017-07-10T08:25:57.161Z,75
2017-07-10T08:27:07.438Z,70
2017-07-10T08:28:17.415Z,70
2017-07-10T08:29:27.631Z,65
2017-07-10T08:30:37.608Z,60
2017-07-10T08:31:47.585Z,60
2017-07-10T08:32:58.055Z,60
2017-07-10T08:34:08.038Z,60
2017-07-10T08:35:18.574Z,55
2017-07-10T08:36:28.531Z,50
2017-07-10T08:37:38.811Z,50
2017-07-10T08:38:49.101Z,45
2017-07-10T08:39:59.042Z,40
2017-07-10T08:41:09.565Z,40
2017-07-10T08:42:19.525Z,45
2017-07-10T08:43:29.796Z,40
2017-07-10T08:44:39.437Z,40
2017-07-10T08:45:49.740Z,35
2017-07-10T08:46:59.946Z,35
2017-07-10T08:48:10.223Z,30
2017-07-10T08:49:20.502Z,30
2017-07-10T08:50:30.466Z,25
2017-07-10T08:51:40.736Z,25
2017-07-10T08:52:51.316Z,25
2017-07-10T08:54:01.601Z,25
2017-07-10T08:55:11.884Z,25
2017-07-10T08:56:21.852Z,25
2017-07-10T08:57:32.160Z,30
2017-07-10T08:58:42.343Z,30
2017-07-10T08:59:52.926Z,40
2017-07-10T09:01:02.995Z,45
2017-07-10T09:02:13.450Z,50
2017-07-10T09:03:23.235Z,50
2017-07-10T09:04:33.844Z,50
2017-07-10T09:05:44.105Z,55
2017-07-10T09:06:54.390Z,55
2017-07-10T09:08:04.890Z,60
2017-07-10T09:09:15.171Z,60
2017-07-10T09:10:25.726Z,65
2017-07-10T09:11:35.710Z,70
2017-07-10T09:12:46.006Z,75
2017-07-10T09:13:56.280Z,85
2017-07-10T09:15:06.572Z,85
2017-07-10T09:16:17.164Z,90
2017-07-10T09:17:27.437Z,95
2017-07-10T09:18:37.710Z,100
2017-07-10T09:19:47.971Z,110
2017-07-10T09:20:57.934Z,115
2017-07-10T09:22:08.477Z,125
2017-07-10T09:23:18.844Z,140
2017-07-10T09:24:29.123Z,150
2017-07-10T09:25:39.091Z,165
2017-07-10T09:26:49.356Z,180
2017-07-10T09:27:59.553Z,195
2017-07-10T09:29:09.827Z,200
2017-07-10T09:30:20.119Z,210
2017-07-10T09:31:30.077Z,210
2017-07-10T09:32:40.366Z,215
2017-07-10T09:33:50.965Z,230
2017-07-10T09:35:01.253Z,245
2017-07-10T09:36:10.899Z,265
2017-07-10T09:37:21.157Z,270
2017-07-10T09:38:31.112Z,285
2017-07-10T09:39:41.358Z,285
2017-07-10T09:40:51.633Z,280
2017-07-10T09:42:01.920Z,270
2017-07-10T09:43:12.220Z,250
2017-07-10T09:44:22.512Z,215
2017-07-10T09:45:33.059Z,205
2017-07-10T09:46:43.025Z,200
2017-07-10T09:47:53.329Z,205
2017-07-10T09:49:03.602Z,225
2017-07-10T09:50:13.872Z,250
2017-07-10T09:51:24.094Z,280
2017-07-10T09:52:34.378Z,305
2017-07-10T09:53:44.666Z,310
2017-07-10T09:54:54.952Z,310
2017-07-10T09:56:05.230Z,310
2017-07-10T09:57:15.770Z,320
2017-07-10T09:58:26.082Z,315
2017-07-10T09:59:36.376Z,315
2017-07-10T10:00:46.325Z,325
2017-07-10T10:01:56.627Z,335
2017-07-10T10:03:07.151Z,345
2017-07-10T10:04:17.124Z,340
2017-07-10T10:05:27.072Z,340
2017-07-10T10:06:37.026Z,325
2017-07-10T10:07:47.400Z,320
2017-07-10T10:08:57.924Z,325
2017-07-10T10:10:08.201Z,335
2017-07-10T10:11:18.153Z,350
2017-07-10T10:12:28.442Z,370
2017-07-10T10:13:38.741Z,410
2017-07-10T10:14:49.266Z,440
2017-07-10T10:15:58.921Z,490
2017-07-10T10:17:08.569Z,540
2017-07-10T10:18:18.545Z,590
2017-07-10T10:19:28.501Z,650
2017-07-10T10:20:39.011Z,695
2017-07-10T10:21:48.981Z,730
2017-07-10T10:22:59.263Z,770
2017-07-10T10:24:09.218Z,805
2017-07-10T10:25:19.220Z,865
2017-07-10T10:26:29.747Z,835
2017-07-10T10:27:40.042Z,725
2017-07-10T10:28:50.015Z,670
2017-07-10T10:30:00.290Z,635
2017-07-10T10:31:10.580Z,625
2017-07-10T10:32:21.102Z,610
2017-07-10T10:33:31.388Z,610
2017-07-10T10:34:41.667Z,610
2017-07-10T10:35:51.953Z,590
2017-07-10T10:37:01.926Z,560
2017-07-10T10:38:12.132Z,535
2017-07-10T10:39:22.451Z,510
2017-07-10T10:40:32.725Z,500
2017-07-10T10:41:42.994Z,500
2017-07-10T10:42:53.272Z,500
2017-07-10T10:44:03.795Z,495
2017-07-10T10:45:14.139Z,490
2017-07-10T10:46:24.428Z,480
2017-07-10T10:47:34.711Z,475
2017-07-10T10:48:44.990Z,475
2017-07-10T10:49:55.520Z,485
2017-07-10T10:51:05.813Z,485
2017-07-10T10:52:16.088Z,495
2017-07-10T10:53:26.370Z,510
2017-07-10T10:54:36.645Z,520
2017-07-10T10:55:47.175Z,545
2017-07-10T10:56:57.478Z,565
2017-07-10T10:58:07.438Z,580
2017-07-10T10:59:17.725Z,585
2017-07-10T11:00:28.038Z,580
2017-07-10T11:01:38.561Z,575
2017-07-10T11:02:48.824Z,565
2017-07-10T11:03:59.091Z,555
2017-07-10T11:05:09.686Z,550
2017-07-10T11:06:19.996Z,540
2017-07-10T11:07:30.539Z,540
2017-07-10T11:08:40.832Z,535
2017-07-10T11:09:51.110Z,530
2017-07-10T11:11:01.088Z,535
2017-07-10T11:12:11.394Z,525
2017-07-10T11:13:21.923Z,505
2017-07-10T11:14:31.568Z,470
2017-07-10T11:15:41.846Z,430
2017-07-10T11:16:52.141Z,385
2017-07-10T11:18:02.436Z,345
2017-07-10T11:19:12.665Z,305
2017-07-10T11:20:22.968Z,275
2017-07-10T11:21:32.946Z,240
2017-07-10T11:22:43.293Z,215
2017-07-10T11:23:53.574Z,175
2017-07-10T11:25:03.771Z,145
2017-07-10T11:26:13.451Z,135
2017-07-10T11:27:23.734Z,130
2017-07-10T11:28:33.695Z,130
2017-07-10T11:29:44.016Z,150
2017-07-10T11:30:54.238Z,210
2017-07-10T11:32:04.214Z,335
2017-07-10T11:33:14.516Z,510
2017-07-10T11:34:24.492Z,680
2017-07-10T11:35:34.776Z,640
2017-07-10T11:36:45.386Z,475
2017-07-10T11:37:55.661Z,445
2017-07-10T11:39:05.609Z,510
2017-07-10T11:40:15.930Z,635
2017-07-10T11:41:26.214Z,715
2017-07-10T11:42:36.757Z,740
2017-07-10T11:43:46.723Z,750
2017-07-10T11:44:56.679Z,795
2017-07-10T11:46:06.969Z,750
2017-07-10T11:47:17.270Z,695
2017-07-10T11:48:27.490Z,780
2017-07-10T11:49:37.789Z,645
2017-07-10T11:50:48.065Z,475
2017-07-10T11:51:58.364Z,445
2017-07-10T11:53:08.370Z,330
2017-07-10T11:54:18.941Z,255
2017-07-10T11:55:29.224Z,165
2017-07-10T11:56:39.495Z,115
2017-07-10T11:57:49.797Z,125
2017-07-10T11:59:00.090Z,150
2017-07-10T12:00:10.647Z,220
2017-07-10T12:01:20.930Z,305
2017-07-10T12:02:31.210Z,340
2017-07-10T12:03:41.488Z,295
2017-07-10T12:04:51.793Z,230
2017-07-10T12:06:02.342Z,185
2017-07-10T12:07:12.301Z,150
2017-07-10T12:08:22.581Z,135
2017-07-10T12:09:32.896Z,145
2017-07-10T12:10:43.188Z,170
2017-07-10T12:11:53.714Z,220
2017-07-10T12:13:03.373Z,305
2017-07-10T12:14:13.660Z,380
2017-07-10T12:15:23.915Z,385
2017-07-10T12:16:33.889Z,325
2017-07-10T12:17:44.418Z,325
2017-07-10T12:18:54.392Z,355
2017-07-10T12:20:04.393Z,390
2017-07-10T12:21:14.380Z,365
2017-07-10T12:22:24.661Z,305
2017-07-10T12:23:35.176Z,360
2017-07-10T12:24:45.451Z,470
2017-07-10T12:25:55.410Z,530
2017-07-10T12:27:05.692Z,505
2017-07-10T12:28:15.978Z,505
2017-07-10T12:29:26.262Z,535
2017-07-10T12:30:36.231Z,615
2017-07-10T12:31:46.523Z,975
2017-07-10T12:32:56.156Z,905
2017-07-10T12:34:06.497Z,615
2017-07-10T12:35:16.704Z,645
2017-07-10T12:36:26.988Z,615
2017-07-10T12:37:36.957Z,580
2017-07-10T12:38:47.239Z,535
2017-07-10T12:39:56.890Z,500
2017-07-10T12:41:07.423Z,585
2017-07-10T12:42:17.704Z,685
2017-07-10T12:43:27.681Z,775
2017-07-10T12:44:37.986Z,1025
2017-07-10T12:45:47.945Z,1185
2017-07-10T12:46:58.465Z,1090
2017-07-10T12:48:08.793Z,1505
2017-07-10T12:49:18.760Z,1210
2017-07-10T12:50:29.055Z,1155
2017-07-10T12:51:38.729Z,1350
2017-07-10T12:52:49.278Z,1300
2017-07-10T12:53:59.574Z,900
2017-07-10T12:55:09.529Z,730
2017-07-10T12:56:19.827Z,790
2017-07-10T12:57:30.104Z,990
2017-07-10T12:58:40.618Z,1190
2017-07-10T12:59:50.893Z,1015
2017-07-10T13:01:00.840Z,770
2017-07-10T13:02:11.184Z,620
2017-07-10T13:03:21.472Z,690
2017-07-10T13:04:31.687Z,750
2017-07-10T13:05:41.990Z,750
2017-07-10T13:06:52.283Z,745
2017-07-10T13:08:02.569Z,655
2017-07-10T13:09:12.585Z,735
2017-07-10T13:10:23.115Z,835
2017-07-10T13:11:33.391Z,820
2017-07-10T13:12:43.687Z,680
2017-07-10T13:13:53.985Z,595
2017-07-10T13:15:03.979Z,540
2017-07-10T13:16:14.218Z,480
2017-07-10T13:17:24.507Z,430
2017-07-10T13:18:34.789Z,375
2017-07-10T13:19:45.080Z,345
2017-07-10T13:20:55.350Z,310
2017-07-10T13:22:05.553Z,260
2017-07-10T13:23:15.832Z,225
2017-07-10T13:24:26.110Z,205
2017-07-10T13:25:36.384Z,280
2017-07-10T13:26:46.673Z,420
2017-07-10T13:27:56.870Z,515
2017-07-10T13:29:06.497Z,550
2017-07-10T13:30:16.516Z,525
2017-07-10T13:31:26.472Z,495
2017-07-10T13:32:36.436Z,465
2017-07-10T13:33:47.011Z,465
2017-07-10T13:34:57.288Z,400
2017-07-10T13:36:07.556Z,380
2017-07-10T13:37:17.822Z,405
2017-07-10T13:38:28.116Z,420
2017-07-10T13:39:38.701Z,365
2017-07-10T13:40:48.978Z,305
2017-07-10T13:41:59.276Z,300
2017-07-10T13:43:09.541Z,310
2017-07-10T13:44:19.871Z,355
2017-07-10T13:45:30.460Z,365
2017-07-10T13:46:40.721Z,400
2017-07-10T13:47:50.988Z,500
2017-07-10T13:49:00.688Z,595
2017-07-10T13:50:10.954Z,735
2017-07-10T13:51:21.163Z,870
2017-07-10T13:52:31.130Z,1200
2017-07-10T13:53:41.399Z,1720
2017-07-10T13:54:51.381Z,1655
2017-07-10T13:56:01.675Z,1825
2017-07-10T13:57:12.202Z,1335
2017-07-10T13:58:22.467Z,1050
2017-07-10T13:59:32.422Z,865
2017-07-10T14:00:42.365Z,765
2017-07-10T14:01:52.636Z,660
2017-07-10T14:03:03.194Z,560
2017-07-10T14:04:13.473Z,505
2017-07-10T14:05:23.743Z,540
2017-07-10T14:06:34.050Z,675
2017-07-10T14:07:44.338Z,815
2017-07-10T14:08:54.237Z,695
2017-07-10T14:10:03.902Z,680
2017-07-10T14:11:13.858Z,790
2017-07-10T14:12:24.136Z,1020
2017-07-10T14:13:34.098Z,845
2017-07-10T14:14:44.299Z,690
2017-07-10T14:15:54.264Z,650
2017-07-10T14:17:03.909Z,695
2017-07-10T14:18:13.908Z,800
2017-07-10T14:19:24.215Z,840
2017-07-10T14:20:34.431Z,705
2017-07-10T14:21:44.702Z,710
2017-07-10T14:22:54.332Z,635
2017-07-10T14:24:04.595Z,590
2017-07-10T14:25:14.566Z,570
2017-07-10T14:26:25.116Z,485
2017-07-10T14:27:35.390Z,410
2017-07-10T14:28:45.038Z,365
2017-07-10T14:29:54.994Z,380
2017-07-10T14:31:04.614Z,435
2017-07-10T14:32:15.136Z,545
2017-07-10T14:33:25.404Z,650
2017-07-10T14:34:35.678Z,895
2017-07-10T14:35:45.626Z,985
2017-07-10T14:36:55.265Z,1010
2017-07-10T14:38:05.804Z,940
2017-07-10T14:39:16.097Z,875
2017-07-10T14:40:26.065Z,1220
2017-07-10T14:41:36.342Z,1480
2017-07-10T14:42:46.638Z,1180
2017-07-10T14:43:57.188Z,1215
2017-07-10T14:45:07.155Z,1055
2017-07-10T14:46:17.441Z,1080
2017-07-10T14:47:27.736Z,880
2017-07-10T14:48:37.703Z,810
2017-07-10T14:49:48.230Z,760
2017-07-10T14:50:58.215Z,745
2017-07-10T14:52:08.535Z,775
2017-07-10T14:53:18.811Z,610
2017-07-10T14:54:29.089Z,430
2017-07-10T14:55:39.621Z,505
2017-07-10T14:56:49.906Z,375
2017-07-10T14:58:00.175Z,405
2017-07-10T14:59:10.445Z,500
2017-07-10T15:00:20.406Z,690
2017-07-10T15:01:31.000Z,970
2017-07-10T15:02:40.959Z,1490
2017-07-10T15:03:51.240Z,2290
2017-07-10T15:05:01.180Z,1225
2017-07-10T15:06:11.474Z,910
2017-07-10T15:07:22.008Z,670
2017-07-10T15:08:32.290Z,790
2017-07-10T15:09:42.578Z,865
2017-07-10T15:10:52.545Z,945
2017-07-10T15:12:02.817Z,815
2017-07-10T15:13:13.032Z,590
2017-07-10T15:14:22.665Z,530
2017-07-10T15:15:32.671Z,505
2017-07-10T15:16:42.989Z,470
2017-07-10T15:17:53.282Z,395
2017-07-10T15:19:03.491Z,335
2017-07-10T15:20:13.121Z,285
2017-07-10T15:21:23.077Z,250
2017-07-10T15:22:33.363Z,235
2017-07-10T15:23:43.633Z,235
2017-07-10T15:24:54.167Z,230
2017-07-10T15:26:04.143Z,240
2017-07-10T15:27:14.439Z,255
2017-07-10T15:28:24.722Z,265
2017-07-10T15:29:34.699Z,260
2017-07-10T15:30:44.609Z,250
2017-07-10T15:31:54.900Z,240
2017-07-10T15:33:05.175Z,230
2017-07-10T15:34:15.154Z,220
2017-07-10T15:35:25.112Z,220
2017-07-10T15:36:35.700Z,225
2017-07-10T15:37:45.980Z,230
2017-07-10T15:38:55.620Z,225
2017-07-10T15:40:05.897Z,225
2017-07-10T15:41:16.187Z,225
2017-07-10T15:42:26.704Z,230
2017-07-10T15:43:36.990Z,240
2017-07-10T15:44:47.269Z,250
2017-07-10T15:45:57.544Z,255
2017-07-10T15:47:07.835Z,255
2017-07-10T15:48:18.362Z,250
2017-07-10T15:49:28.640Z,240
2017-07-10T15:50:38.936Z,230
2017-07-10T15:51:49.218Z,225
2017-07-10T15:52:59.507Z,215
2017-07-10T15:54:10.058Z,210
2017-07-10T15:55:20.069Z,210
2017-07-10T15:56:30.427Z,210
2017-07-10T15:57:40.396Z,210
2017-07-10T15:58:50.034Z,205
2017-07-10T16:00:00.247Z,195
2017-07-10T16:01:10.507Z,185
2017-07-10T16:02:20.783Z,170
2017-07-10T16:03:31.060Z,160
2017-07-10T16:04:41.338Z,145
2017-07-10T16:05:51.565Z,130
2017-07-10T16:07:01.552Z,120
2017-07-10T16:08:11.817Z,115
2017-07-10T16:09:22.068Z,110
2017-07-10T16:10:32.354Z,105
2017-07-10T16:11:42.889Z,105
2017-07-10T16:12:53.153Z,100
2017-07-10T16:14:03.421Z,105
2017-07-10T16:15:13.711Z,105
2017-07-10T16:16:23.693Z,110
2017-07-10T16:17:33.902Z,115
2017-07-10T16:18:43.850Z,120
2017-07-10T16:19:53.512Z,120
2017-07-10T16:21:03.473Z,125